createdAt,value
2022-11-20T00:01:23.096Z,18.80
2022-11-20T00:03:52.318Z,18.90
2022-11-20T00:06:21.227Z,19.00
2022-11-20T00:08:49.450Z,19.00
2022-11-20T00:11:19.858Z,19.00
2022-11-20T00:13:49.574Z,19.00
2022-11-20T00:16:19.838Z,19.00
2022-11-20T00:18:47.557Z,19.00
2022-11-20T00:21:17.030Z,19.00
2022-11-20T00:23:44.686Z,19.00
2022-11-20T00:26:14.522Z,19.00
2022-11-20T00:28:42.646Z,19.00
2022-11-20T00:31:13.214Z,19.00
2022-11-20T00:33:41.211Z,19.00
2022-11-20T00:36:11.219Z,19.00
2022-11-20T00:38:38.818Z,19.00
2022-11-20T00:41:09.173Z,19.00
2022-11-20T00:43:38.276Z,19.00
2022-11-20T00:46:10.904Z,19.00
2022-11-20T00:48:38.073Z,18.90
2022-11-20T00:51:05.522Z,18.90
2022-11-20T00:53:33.089Z,18.90
2022-11-20T00:56:02.849Z,18.80
2022-11-20T00:58:35.686Z,18.70
2022-11-20T01:01:08.699Z,18.50
2022-11-20T01:03:37.919Z,18.30
2022-11-20T01:06:38.619Z,18.20
2022-11-20T01:09:14.892Z,18.10
2022-11-20T01:11:45.058Z,17.90
2022-11-20T01:14:15.143Z,17.90
2022-11-20T01:16:45.720Z,17.80
2022-11-20T01:19:17.944Z,17.80
2022-11-20T01:21:48.764Z,17.70
2022-11-20T01:24:18.521Z,17.70
2022-11-20T01:26:48.208Z,17.70
2022-11-20T01:29:18.784Z,17.70
2022-11-20T01:31:46.376Z,17.60
2022-11-20T01:34:17.758Z,17.60
2022-11-20T01:36:45.617Z,17.60
2022-11-20T01:39:21.853Z,17.60
2022-11-20T01:42:10.313Z,17.60
2022-11-20T01:44:54.350Z,17.50
2022-11-20T01:47:39.669Z,17.50
2022-11-20T01:50:16.135Z,17.50
2022-11-20T01:52:51.117Z,17.50
2022-11-20T01:55:25.881Z,17.40
2022-11-20T01:57:53.300Z,17.40
2022-11-20T02:00:21.765Z,17.40
2022-11-20T02:03:12.389Z,17.40
2022-11-20T02:06:06.930Z,17.40
2022-11-20T02:08:35.221Z,17.40
2022-11-20T02:11:02.265Z,17.40
2022-11-20T02:13:44.980Z,17.40
2022-11-20T02:16:26.352Z,17.50
2022-11-20T02:18:55.938Z,17.50
2022-11-20T02:21:35.464Z,17.50
2022-11-20T02:24:10.421Z,17.40
2022-11-20T02:27:09.011Z,17.40
2022-11-20T02:29:40.910Z,17.40
2022-11-20T02:32:18.546Z,17.40
2022-11-20T02:34:45.697Z,17.40
2022-11-20T02:37:13.425Z,17.40
2022-11-20T02:39:41.599Z,17.40
2022-11-20T02:42:09.062Z,17.40
2022-11-20T02:44:36.201Z,17.40
2022-11-20T02:47:03.710Z,17.40
2022-11-20T02:49:30.793Z,17.40
2022-11-20T02:51:58.153Z,17.40
2022-11-20T02:54:26.163Z,17.40
2022-11-20T02:56:53.445Z,17.40
2022-11-20T02:59:20.743Z,17.40
2022-11-20T03:01:47.959Z,17.30
2022-11-20T03:04:15.529Z,17.30
2022-11-20T03:06:42.889Z,17.30
2022-11-20T03:09:10.371Z,17.20
2022-11-20T03:11:37.473Z,17.20
2022-11-20T03:14:05.788Z,17.20
2022-11-20T03:16:33.812Z,17.20
2022-11-20T03:19:01.156Z,17.20
2022-11-20T03:21:28.536Z,17.20
2022-11-20T03:23:56.056Z,17.20
2022-11-20T03:26:25.852Z,17.20
2022-11-20T03:28:55.976Z,17.20
2022-11-20T03:31:26.101Z,17.10
2022-11-20T03:33:53.441Z,17.10
2022-11-20T03:36:21.841Z,17.10
2022-11-20T03:38:49.571Z,17.00
2022-11-20T03:41:22.088Z,16.80
2022-11-20T03:43:53.708Z,16.70
2022-11-20T03:46:21.272Z,16.60
2022-11-20T03:48:51.622Z,16.50
2022-11-20T03:51:29.750Z,16.40
2022-11-20T03:53:59.640Z,16.40
2022-11-20T03:56:29.646Z,16.30
2022-11-20T03:58:57.057Z,16.30
2022-11-20T04:01:27.565Z,16.30
2022-11-20T04:03:56.501Z,16.30
2022-11-20T04:06:34.021Z,16.40
2022-11-20T04:09:01.578Z,16.40
2022-11-20T04:11:31.508Z,16.40
2022-11-20T04:14:04.332Z,16.40
2022-11-20T04:16:36.580Z,16.40
2022-11-20T04:19:06.714Z,16.40
2022-11-20T04:21:34.299Z,16.50
2022-11-20T04:24:01.621Z,16.50
2022-11-20T04:26:29.997Z,16.50
2022-11-20T04:28:58.260Z,16.60
2022-11-20T04:31:28.146Z,16.60
2022-11-20T04:33:55.476Z,16.60
2022-11-20T04:36:25.745Z,16.60
2022-11-20T04:38:58.206Z,16.60
2022-11-20T04:41:31.017Z,16.60
2022-11-20T04:44:03.432Z,16.60
2022-11-20T04:46:33.410Z,16.60
2022-11-20T04:49:01.059Z,16.60
2022-11-20T04:51:29.141Z,16.70
2022-11-20T04:53:56.308Z,16.70
2022-11-20T04:56:23.766Z,16.70
2022-11-20T04:58:51.409Z,16.60
2022-11-20T05:01:24.065Z,16.70
2022-11-20T05:03:51.647Z,16.80
2022-11-20T05:06:20.712Z,16.80
2022-11-20T05:08:48.307Z,16.80
2022-11-20T05:11:18.597Z,16.90
2022-11-20T05:13:45.719Z,16.90
2022-11-20T05:16:15.576Z,17.00
2022-11-20T05:18:43.879Z,17.10
2022-11-20T05:21:12.274Z,17.20
2022-11-20T05:23:40.037Z,17.20
2022-11-20T05:26:08.913Z,17.20
2022-11-20T05:28:36.337Z,17.20
2022-11-20T05:31:22.012Z,17.20
2022-11-20T05:33:52.708Z,17.10
2022-11-20T05:36:19.865Z,17.00
2022-11-20T05:38:50.667Z,16.90
2022-11-20T05:41:21.171Z,16.90
2022-11-20T05:43:50.057Z,16.80
2022-11-20T05:46:24.788Z,16.80
2022-11-20T05:48:55.385Z,16.80
2022-11-20T05:51:22.702Z,16.80
2022-11-20T05:53:49.866Z,16.90
2022-11-20T05:56:20.365Z,16.90
2022-11-20T05:58:48.234Z,16.90
2022-11-20T06:01:18.042Z,17.00
2022-11-20T06:03:48.619Z,17.00
2022-11-20T06:06:17.097Z,17.00
2022-11-20T06:08:45.509Z,17.10
2022-11-20T06:11:14.010Z,17.10
2022-11-20T06:13:42.743Z,17.20
2022-11-20T06:16:11.511Z,17.20
2022-11-20T06:18:38.973Z,17.30
2022-11-20T06:21:34.538Z,17.20
2022-11-20T06:24:01.655Z,17.30
2022-11-20T06:26:29.189Z,17.30
2022-11-20T06:28:59.242Z,17.40
2022-11-20T06:31:27.304Z,17.40
2022-11-20T06:33:54.731Z,17.50
2022-11-20T06:36:24.015Z,17.50
2022-11-20T06:38:51.366Z,17.60
2022-11-20T06:41:21.217Z,17.70
2022-11-20T06:43:49.039Z,17.70
2022-11-20T06:46:20.449Z,17.80
2022-11-20T06:48:49.463Z,17.80
2022-11-20T06:51:17.137Z,17.90
2022-11-20T06:53:44.440Z,17.90
2022-11-20T06:56:11.577Z,17.90
2022-11-20T06:58:38.867Z,18.00
2022-11-20T07:01:10.082Z,17.90
2022-11-20T07:03:37.496Z,17.90
2022-11-20T07:06:05.425Z,17.90
2022-11-20T07:08:34.434Z,17.90
2022-11-20T07:11:03.803Z,17.90
2022-11-20T07:13:31.682Z,17.80
2022-11-20T07:16:03.833Z,17.80
2022-11-20T07:18:31.345Z,17.70
2022-11-20T07:21:05.124Z,17.70
2022-11-20T07:23:32.643Z,17.60
2022-11-20T07:26:10.128Z,17.60
2022-11-20T07:28:37.507Z,17.60
2022-11-20T07:31:06.121Z,17.60
2022-11-20T07:33:33.513Z,17.60
2022-11-20T07:36:01.557Z,17.50
2022-11-20T07:38:29.005Z,17.50
2022-11-20T07:40:59.243Z,17.50
2022-11-20T07:43:26.486Z,17.50
2022-11-20T07:45:55.867Z,17.50
2022-11-20T07:48:23.102Z,17.50
2022-11-20T07:50:50.695Z,17.50
2022-11-20T07:53:21.757Z,17.50
2022-11-20T07:55:49.372Z,17.50
2022-11-20T07:58:16.470Z,17.50
2022-11-20T08:00:43.773Z,16.80
2022-11-20T08:03:11.156Z,15.70
2022-11-20T08:05:38.477Z,14.20
2022-11-20T08:08:05.829Z,13.60
2022-11-20T08:10:32.981Z,13.60
2022-11-20T08:13:18.769Z,13.60
2022-11-20T08:15:53.481Z,13.60
2022-11-20T08:18:35.909Z,13.70
2022-11-20T08:21:03.820Z,13.80
2022-11-20T08:23:31.311Z,13.90
2022-11-20T08:25:58.602Z,13.90
2022-11-20T08:28:25.995Z,13.80
2022-11-20T08:31:00.089Z,13.80
2022-11-20T08:33:27.563Z,13.80
2022-11-20T08:35:54.694Z,13.80
2022-11-20T08:38:21.892Z,13.80
2022-11-20T08:41:08.959Z,13.80
2022-11-20T08:43:36.110Z,13.80
2022-11-20T08:46:03.160Z,13.70
2022-11-20T08:48:30.326Z,13.70
2022-11-20T08:51:00.445Z,13.70
2022-11-20T08:53:28.690Z,13.70
2022-11-20T08:55:55.975Z,13.70
2022-11-20T08:58:23.118Z,13.70
2022-11-20T09:00:50.227Z,13.70
2022-11-20T09:03:17.530Z,13.70
2022-11-20T09:05:44.671Z,13.70
2022-11-20T09:08:12.239Z,13.60
2022-11-20T09:10:42.029Z,13.50
2022-11-20T09:13:09.230Z,13.50
2022-11-20T09:15:36.312Z,13.50
2022-11-20T09:18:05.710Z,13.60
2022-11-20T09:20:32.909Z,13.60
2022-11-20T09:22:59.993Z,13.70
2022-11-20T09:25:27.166Z,13.80
2022-11-20T09:28:00.720Z,13.90
2022-11-20T09:30:28.873Z,14.00
2022-11-20T09:32:55.964Z,14.10
2022-11-20T09:35:23.385Z,14.10
2022-11-20T09:37:50.624Z,14.20
2022-11-20T09:40:27.102Z,14.20
2022-11-20T09:43:15.552Z,14.10
2022-11-20T09:46:04.350Z,14.10
2022-11-20T09:48:34.425Z,14.10
2022-11-20T09:51:23.374Z,14.30
2022-11-20T09:53:56.492Z,14.50
2022-11-20T09:56:24.492Z,14.70
2022-11-20T09:58:58.954Z,14.90
2022-11-20T10:01:31.782Z,15.00
2022-11-20T10:04:14.835Z,15.10
2022-11-20T10:07:31.028Z,15.10
2022-11-20T10:09:56.185Z,15.00
2022-11-20T10:12:23.201Z,14.90
2022-11-20T10:14:59.301Z,15.00
2022-11-20T10:17:40.738Z,15.00
2022-11-20T10:20:10.736Z,15.10
2022-11-20T10:23:26.030Z,15.10
2022-11-20T10:26:14.213Z,15.10
2022-11-20T10:29:09.275Z,15.30
2022-11-20T10:31:45.429Z,15.30
2022-11-20T10:34:27.311Z,15.40
2022-11-20T10:36:59.365Z,15.70
2022-11-20T10:39:57.144Z,15.90
2022-11-20T10:42:35.500Z,16.00
2022-11-20T10:45:30.593Z,16.30
2022-11-20T10:48:13.080Z,16.50
2022-11-20T10:50:49.832Z,16.80
2022-11-20T10:53:39.189Z,16.90
2022-11-20T10:56:48.341Z,17.10
2022-11-20T10:59:47.877Z,16.90
2022-11-20T11:02:32.072Z,16.80
2022-11-20T11:05:10.338Z,16.60
2022-11-20T11:07:41.660Z,16.50
2022-11-20T11:10:42.452Z,16.80
2022-11-20T11:13:30.866Z,17.20
2022-11-20T11:15:58.821Z,17.40
2022-11-20T11:18:34.431Z,17.60
2022-11-20T11:21:06.081Z,17.90
2022-11-20T11:23:41.757Z,18.40
2022-11-20T11:26:20.933Z,18.80
2022-11-20T11:29:02.057Z,19.20
2022-11-20T11:31:35.392Z,19.40
2022-11-20T11:34:06.701Z,19.70
2022-11-20T11:36:35.650Z,19.80
2022-11-20T11:39:05.029Z,19.50
2022-11-20T11:41:38.124Z,18.90
2022-11-20T11:44:39.104Z,18.50
2022-11-20T11:47:12.689Z,17.90
2022-11-20T11:49:39.841Z,17.60
2022-11-20T11:52:17.393Z,17.40
2022-11-20T11:54:49.624Z,17.50
2022-11-20T11:57:58.953Z,17.50
2022-11-20T12:00:26.290Z,17.40
2022-11-20T12:03:25.958Z,17.30
2022-11-20T12:06:00.934Z,17.20
2022-11-20T12:08:42.893Z,17.00
2022-11-20T12:11:39.150Z,17.00
2022-11-20T12:14:27.414Z,16.80
2022-11-20T12:16:56.805Z,16.80
2022-11-20T12:19:26.506Z,17.10
2022-11-20T12:22:18.789Z,17.10
2022-11-20T12:25:10.743Z,17.10
2022-11-20T12:28:03.958Z,17.10
2022-11-20T12:30:36.597Z,17.10
2022-11-20T12:33:30.013Z,16.70
2022-11-20T12:36:16.892Z,16.50
2022-11-20T12:38:59.014Z,16.50
2022-11-20T12:42:06.275Z,16.30
2022-11-20T12:45:11.017Z,16.00
2022-11-20T12:47:44.246Z,16.00
2022-11-20T12:51:08.131Z,16.00
2022-11-20T12:53:39.813Z,16.00
2022-11-20T12:56:42.308Z,16.00
2022-11-20T12:59:46.283Z,15.90
2022-11-20T13:02:46.466Z,15.80
2022-11-20T13:05:28.300Z,15.70
2022-11-20T13:07:56.606Z,15.70
2022-11-20T13:10:47.256Z,15.70
2022-11-20T13:13:23.130Z,15.70
2022-11-20T13:15:59.693Z,15.70
2022-11-20T13:18:27.259Z,15.70
2022-11-20T13:20:54.359Z,15.70
2022-11-20T13:23:26.830Z,15.70
2022-11-20T13:26:15.554Z,15.70
2022-11-20T13:28:48.261Z,15.80
2022-11-20T13:31:36.685Z,15.70
2022-11-20T13:34:07.043Z,15.70
2022-11-20T13:36:37.720Z,15.70
2022-11-20T13:39:05.010Z,15.60
2022-11-20T13:41:36.616Z,15.60
2022-11-20T13:44:28.745Z,15.60
2022-11-20T13:46:55.931Z,15.60
2022-11-20T13:49:22.970Z,15.50
2022-11-20T13:52:07.161Z,15.50
2022-11-20T13:54:55.694Z,15.50
2022-11-20T13:57:39.570Z,15.60
2022-11-20T14:00:27.479Z,15.60
2022-11-20T14:03:01.186Z,15.70
2022-11-20T14:05:29.442Z,15.70
2022-11-20T14:07:58.229Z,15.70
2022-11-20T14:10:32.427Z,15.70
2022-11-20T14:13:10.701Z,15.80
2022-11-20T14:15:44.602Z,15.80
2022-11-20T14:18:16.908Z,15.80
2022-11-20T14:20:44.897Z,15.80
2022-11-20T14:23:12.858Z,15.90
2022-11-20T14:25:44.268Z,15.90
2022-11-20T14:28:19.757Z,15.90
2022-11-20T14:30:49.393Z,15.90
2022-11-20T14:33:17.050Z,15.90
2022-11-20T14:35:49.645Z,15.90
2022-11-20T14:38:19.961Z,16.00
2022-11-20T14:40:47.267Z,16.00
2022-11-20T14:43:34.337Z,16.00
2022-11-20T14:46:12.506Z,16.00
2022-11-20T14:48:49.288Z,16.00
2022-11-20T14:51:42.498Z,16.00
2022-11-20T14:54:20.162Z,16.00
2022-11-20T14:56:58.502Z,16.00
2022-11-20T14:59:31.029Z,16.00
2022-11-20T15:02:02.641Z,15.90
2022-11-20T15:04:30.152Z,15.90
2022-11-20T15:07:00.661Z,15.80
2022-11-20T15:09:28.128Z,15.80
2022-11-20T15:12:01.408Z,15.80
2022-11-20T15:14:30.961Z,15.70
2022-11-20T15:16:58.245Z,15.70
2022-11-20T15:19:27.592Z,15.60
2022-11-20T15:21:54.900Z,15.60
2022-11-20T15:24:22.555Z,15.60
2022-11-20T15:26:50.046Z,15.50
2022-11-20T15:29:20.016Z,15.40
2022-11-20T15:31:47.397Z,15.40
2022-11-20T15:34:17.991Z,15.30
2022-11-20T15:36:45.425Z,15.20
2022-11-20T15:39:12.697Z,15.20
2022-11-20T15:41:40.335Z,15.10
2022-11-20T15:44:07.699Z,15.10
2022-11-20T15:46:39.559Z,15.10
2022-11-20T15:49:12.481Z,15.00
2022-11-20T15:51:42.967Z,15.00
2022-11-20T15:54:21.374Z,14.90
2022-11-20T15:56:50.722Z,14.90
2022-11-20T15:59:18.098Z,14.90
2022-11-20T16:01:45.442Z,14.90
2022-11-20T16:04:15.159Z,14.90
2022-11-20T16:06:43.379Z,14.90
2022-11-20T16:09:10.753Z,14.90
2022-11-20T16:11:38.709Z,14.90
2022-11-20T16:14:25.615Z,14.90
2022-11-20T16:16:53.254Z,14.90
2022-11-20T16:19:21.334Z,14.90
2022-11-20T16:21:48.512Z,14.80
2022-11-20T16:24:16.898Z,14.80
2022-11-20T16:26:44.500Z,14.80
2022-11-20T16:29:11.781Z,14.80
2022-11-20T16:31:39.066Z,14.80
2022-11-20T16:34:12.420Z,14.80
2022-11-20T16:36:51.284Z,14.80
2022-11-20T16:39:23.328Z,14.80
2022-11-20T16:41:51.309Z,14.80
2022-11-20T16:44:18.837Z,14.70
2022-11-20T16:46:46.196Z,14.70
2022-11-20T16:49:15.037Z,14.70
2022-11-20T16:51:42.959Z,14.70
2022-11-20T16:54:12.361Z,14.70
2022-11-20T16:56:42.369Z,14.70
2022-11-20T16:59:09.808Z,14.70
2022-11-20T17:01:40.416Z,14.70
2022-11-20T17:04:07.970Z,14.70
2022-11-20T17:06:37.828Z,14.60
2022-11-20T17:09:05.739Z,14.60
2022-11-20T17:11:33.808Z,14.60
2022-11-20T17:14:02.431Z,14.50
2022-11-20T17:16:31.433Z,14.50
2022-11-20T17:19:02.975Z,14.40
2022-11-20T17:21:37.846Z,14.40
2022-11-20T17:24:10.788Z,14.30
2022-11-20T17:26:40.651Z,14.30
2022-11-20T17:29:13.295Z,14.30
2022-11-20T17:31:41.081Z,14.30
2022-11-20T17:34:11.564Z,14.30
2022-11-20T17:36:45.939Z,14.30
2022-11-20T17:39:15.125Z,14.30
2022-11-20T17:41:42.490Z,14.40
2022-11-20T17:44:11.034Z,14.40
2022-11-20T17:46:38.659Z,14.40
2022-11-20T17:49:06.098Z,14.40
2022-11-20T17:51:35.412Z,14.50
2022-11-20T17:54:07.358Z,14.50
2022-11-20T17:56:54.749Z,14.40
2022-11-20T17:59:22.937Z,14.40
2022-11-20T18:01:50.160Z,14.30
2022-11-20T18:04:17.825Z,14.30
2022-11-20T18:06:44.964Z,14.30
2022-11-20T18:09:12.723Z,14.20
2022-11-20T18:11:42.101Z,14.20
2022-11-20T18:14:34.855Z,14.20
2022-11-20T18:17:04.643Z,14.10
2022-11-20T18:19:38.872Z,14.10
2022-11-20T18:22:09.109Z,14.10
2022-11-20T18:24:37.499Z,14.00
2022-11-20T18:27:05.860Z,14.00
2022-11-20T18:29:33.723Z,14.00
2022-11-20T18:32:01.385Z,14.00
2022-11-20T18:34:28.802Z,14.00
2022-11-20T18:36:56.045Z,14.00
2022-11-20T18:39:24.198Z,14.00
2022-11-20T18:42:09.761Z,14.00
2022-11-20T18:44:51.984Z,14.00
2022-11-20T18:47:24.890Z,14.00
2022-11-20T18:49:54.242Z,14.00
2022-11-20T18:52:32.240Z,14.00
2022-11-20T18:55:00.366Z,14.00
2022-11-20T18:57:28.721Z,14.00
2022-11-20T19:00:03.438Z,14.00
2022-11-20T19:02:35.491Z,14.00
2022-11-20T19:05:08.354Z,14.00
2022-11-20T19:07:35.641Z,14.00
2022-11-20T19:10:04.248Z,14.00
2022-11-20T19:12:31.978Z,14.00
2022-11-20T19:14:59.219Z,14.00
2022-11-20T19:17:26.383Z,14.00
2022-11-20T19:19:55.030Z,14.00
2022-11-20T19:22:22.701Z,14.00
2022-11-20T19:24:49.834Z,14.00
2022-11-20T19:27:17.068Z,13.90
2022-11-20T19:29:44.356Z,13.90
2022-11-20T19:32:11.569Z,13.90
2022-11-20T19:34:38.687Z,13.90
2022-11-20T19:37:05.894Z,14.00
2022-11-20T19:39:33.164Z,14.00
2022-11-20T19:42:00.338Z,14.00
2022-11-20T19:44:27.945Z,14.00
2022-11-20T19:46:57.378Z,13.90
2022-11-20T19:49:24.932Z,13.90
2022-11-20T19:51:52.459Z,13.90
2022-11-20T19:54:19.782Z,13.90
2022-11-20T19:56:48.912Z,13.90
2022-11-20T19:59:16.226Z,13.90
2022-11-20T20:01:43.562Z,13.90
2022-11-20T20:04:11.190Z,13.90
2022-11-20T20:06:40.125Z,13.80
2022-11-20T20:09:10.518Z,13.80
2022-11-20T20:11:38.400Z,13.80
2022-11-20T20:14:13.810Z,13.80
2022-11-20T20:16:42.120Z,13.80
2022-11-20T20:19:13.674Z,13.80
2022-11-20T20:21:44.178Z,13.70
2022-11-20T20:24:12.404Z,13.70
2022-11-20T20:26:40.089Z,13.70
2022-11-20T20:29:07.281Z,13.70
2022-11-20T20:31:35.090Z,13.70
2022-11-20T20:34:03.561Z,13.60
2022-11-20T20:36:30.974Z,13.60
2022-11-20T20:39:08.393Z,13.70
2022-11-20T20:41:35.536Z,13.70
2022-11-20T20:44:20.992Z,13.70
2022-11-20T20:46:48.093Z,13.70
2022-11-20T20:49:15.335Z,13.70
2022-11-20T20:51:42.569Z,13.70
2022-11-20T20:54:10.787Z,13.60
2022-11-20T20:56:37.963Z,13.60
2022-11-20T20:59:05.372Z,13.50
2022-11-20T21:01:32.683Z,13.50
2022-11-20T21:03:59.928Z,13.50
2022-11-20T21:06:27.147Z,13.50
2022-11-20T21:08:56.042Z,13.60
2022-11-20T21:11:23.074Z,13.60
2022-11-20T21:13:50.178Z,13.60
2022-11-20T21:16:19.021Z,13.70
2022-11-20T21:18:46.637Z,13.70
2022-11-20T21:21:34.379Z,13.80
2022-11-20T21:24:01.791Z,13.80
2022-11-20T21:26:28.945Z,13.80
2022-11-20T21:28:57.248Z,13.80
2022-11-20T21:31:26.765Z,13.70
2022-11-20T21:33:55.972Z,13.60
2022-11-20T21:36:29.713Z,13.60
2022-11-20T21:38:59.547Z,13.50
2022-11-20T21:41:28.746Z,13.50
2022-11-20T21:44:29.666Z,13.50
2022-11-20T21:46:46.036Z,13.50
2022-11-20T21:49:14.769Z,13.40
2022-11-20T21:51:42.148Z,13.30
2022-11-20T21:54:10.696Z,13.30
2022-11-20T21:56:38.177Z,13.20
2022-11-20T21:59:05.290Z,13.20
2022-11-20T22:01:32.701Z,13.20
2022-11-20T22:04:02.473Z,13.20
2022-11-20T22:06:34.642Z,13.20
2022-11-20T22:09:02.926Z,13.10
2022-11-20T22:11:30.450Z,13.00
2022-11-20T22:14:16.894Z,13.00
2022-11-20T22:16:44.098Z,13.00
2022-11-20T22:19:11.248Z,13.00
2022-11-20T22:21:42.043Z,13.00
2022-11-20T22:24:13.110Z,13.00
2022-11-20T22:26:40.950Z,13.00
2022-11-20T22:29:12.577Z,13.00
2022-11-20T22:31:41.097Z,13.00
2022-11-20T22:34:11.588Z,13.10
2022-11-20T22:36:39.497Z,13.10
2022-11-20T22:39:07.459Z,13.00
2022-11-20T22:41:35.289Z,13.00
2022-11-20T22:44:05.425Z,13.00
2022-11-20T22:46:34.730Z,13.00
2022-11-20T22:49:06.781Z,13.00
2022-11-20T22:51:36.951Z,13.10
2022-11-20T22:54:04.326Z,13.20
2022-11-20T22:56:31.880Z,13.20
2022-11-20T22:58:59.476Z,13.20
2022-11-20T23:01:29.021Z,13.20
2022-11-20T23:03:59.082Z,13.20
2022-11-20T23:06:26.919Z,13.10
2022-11-20T23:08:54.797Z,13.20
2022-11-20T23:11:24.525Z,13.10
2022-11-20T23:13:58.140Z,13.10
2022-11-20T23:16:27.749Z,13.10
2022-11-20T23:18:56.608Z,13.20
2022-11-20T23:21:24.858Z,13.20
2022-11-20T23:23:54.090Z,13.10
2022-11-20T23:26:24.093Z,13.10
2022-11-20T23:28:53.016Z,13.10
2022-11-20T23:31:20.354Z,13.10
2022-11-20T23:33:47.546Z,13.10
2022-11-20T23:36:15.221Z,13.10
2022-11-20T23:38:42.537Z,13.10
2022-11-20T23:41:10.165Z,13.10
2022-11-20T23:43:37.185Z,13.10
2022-11-20T23:46:04.973Z,13.10
2022-11-20T23:48:37.334Z,13.10
2022-11-20T23:51:06.596Z,13.10
2022-11-20T23:53:34.045Z,13.20
2022-11-20T23:56:03.900Z,13.20
2022-11-20T23:58:34.260Z,13.30
